Airfield :
LOGIN :

Register | Disclaimer

   EN    FR    IT 

 










Legend :    VFR   Marginal VFR   IFR   Intensive IFR   Very Intensive IFR
Visi :
Ceiling :
>= 8 km
>= 3000ft
5 to 8 km
1000 to 3000 ft
1500m to 5 km
500 to 1000 ft
800 to 1500m
200 to 500 ft
< 800m
< 200 ft
Symbols :   Thunderstorms  Fog  Heavy snow  Heavy precipitations  Wind > 20 kt
SIGMETs :     Misc.  Thunderstorms  Icing  Turbulence  Mountain Waves  Volcanic Ashes






- Airport Elevation : 265 ft


ETSH - Holzdorf AB

CURRENT METAR :
  • 130920Z 19004KT 9999 FEW060 BKN090 05/02 Q1003 BLU BLU

EXPIRED METARs :
  • 130820Z 16004KT 9999 BKN060 05/02 Q1003 BLU BLU
  • 130720Z 17006KT 9999 BKN045 03/02 Q1003 BLU BLU TEMPO WHT

TAF TAF ETSH
Valid from the 13 at 09:00 until the 13 at 18:00 UTC


130819Z 1309/1318 17005KT 9999 NSW BKN060
TEMPO 1309/1318 17008KT 8000 -RA SCT020 BKN040



MET'MAP, your aeronautical weather chart ! - Copyright ORBIFLY December 2007 - Disclaimer

ORBIFLY MET'MAP TEAM :

Programming & Development : Alexandra Zaïnal
Concept & Development : Baudouin d'Aumeries
Co-Development & Prog : Marc-Olivier Méhu
Technical & hardware support : Manuel Goepfert

Contact : metmap@orbifly.com




SOURCES & CREDITS :

   NOAA